Terminal Aerodrome Forecast
Issued by NWS

Home | Current Version | Previous Version | Text Only | Print | Product List | Glossary On
Versions: 1 2 3 4 5 6 7 8 9 10 11 12 13 14 15 16 17 18 19 20 21
000
FTUS43 KLSX 270800 AAA
TAFSUS
TAF AMD
KSUS 270832Z 2709/2806 18006KT P6SM BKN250
     FM271000 22007KT P6SM VCTS BKN050CB
      TEMPO 2711/2713 5SM -SHRA BKN030
     FM271300 24007KT P6SM SCT060
     FM271600 27008KT P6SM SCT040
     FM280100 VRB03KT P6SM SKC=

USA.gov is the U.S. government's official web portal to all federal, state and local government web resources and services.